Aviation Digital Data Service (ADDS)

Output produced by METARs form (1839 UTC 18 June 2019)
found at http://www.aviationweather.gov/metar/data/
 
Forecast for: AGGR (RENNELL TINGOA , SB)
Text: TAF AGGR 181710Z 1818/1918 14017KT 9999 -SHRA SCT018 BKN100
Forecast period: 1800 UTC 18 June 2019 to 1800 UTC 19 June 2019
Forecast type: FROM: standard forecast or significant change
Winds: from the SE (140 degrees) at 20 MPH (17 knots; 8.7 m/s)
Visibility: 6 or more miles 10+ km)
Ceiling: 10000 feet AGL
Clouds: scattered clouds at 1800 feet AGL
broken clouds at 10000 feet AGL
Weather: -SHRA  (light rain showers)
Text: PROB40 INTER 1818/1906 3000 TSSH BKN015 FEW016CB Q 1009 1011 1011 1009
Forecast period: 1800 UTC 18 June 2019 to 0600 UTC 19 June 2019
Forecast type: TEMPORARY: The following changes expected for less than half the time period
Visibility: 1.86 miles (2.99 km)
Ceiling: 1500 feet AGL
Clouds: broken clouds at 1500 feet AGL
few clouds at 1600 feet AGL
Weather: SH TS  (showers, thunderstorm)